createdAt,value
2023-05-18T00:00:32.852Z,55.90
2023-05-18T00:03:02.312Z,55.80
2023-05-18T00:05:34.504Z,55.90
2023-05-18T00:08:03.150Z,55.90
2023-05-18T00:10:31.367Z,56.10
2023-05-18T00:12:59.550Z,56.10
2023-05-18T00:15:29.472Z,56.30
2023-05-18T00:17:58.704Z,56.40
2023-05-18T00:20:27.615Z,56.30
2023-05-18T00:22:55.750Z,56.40
2023-05-18T00:25:24.276Z,56.90
2023-05-18T00:27:52.394Z,56.90
2023-05-18T00:30:20.720Z,57.10
2023-05-18T00:32:50.222Z,57.20
2023-05-18T00:35:18.410Z,57.60
2023-05-18T00:37:46.679Z,57.60
2023-05-18T00:40:15.124Z,57.70
2023-05-18T00:42:43.282Z,57.60
2023-05-18T00:45:11.993Z,57.60
2023-05-18T00:47:40.212Z,57.70
2023-05-18T00:50:11.018Z,57.70
2023-05-18T00:52:39.653Z,58.00
2023-05-18T00:55:09.374Z,57.90
2023-05-18T00:57:38.345Z,58.00
2023-05-18T01:00:10.806Z,58.00
2023-05-18T01:02:43.109Z,58.10
2023-05-18T01:05:14.185Z,57.90
2023-05-18T01:07:44.169Z,57.90
2023-05-18T01:10:14.525Z,58.00
2023-05-18T01:12:47.143Z,58.10
2023-05-18T01:15:19.144Z,58.30
2023-05-18T01:18:05.369Z,58.30
2023-05-18T01:20:39.023Z,58.60
2023-05-18T01:23:30.827Z,58.40
2023-05-18T01:26:25.089Z,58.50
2023-05-18T01:28:54.733Z,58.60
2023-05-18T01:31:23.088Z,58.00
2023-05-18T01:33:51.434Z,58.30
2023-05-18T01:36:19.741Z,58.50
2023-05-18T01:38:48.366Z,58.70
2023-05-18T01:41:22.551Z,58.90
2023-05-18T01:43:57.046Z,59.20
2023-05-18T01:46:36.190Z,59.20
2023-05-18T01:49:11.391Z,59.40
2023-05-18T01:51:45.610Z,59.30
2023-05-18T01:54:17.547Z,59.40
2023-05-18T01:56:49.869Z,59.30
2023-05-18T01:59:19.187Z,59.50
2023-05-18T02:01:47.648Z,59.30
2023-05-18T02:04:15.877Z,59.30
2023-05-18T02:06:44.065Z,59.30
2023-05-18T02:09:12.230Z,59.40
2023-05-18T02:11:40.362Z,59.50
2023-05-18T02:14:09.854Z,59.60
2023-05-18T02:16:38.099Z,59.80
2023-05-18T02:19:06.480Z,59.80
2023-05-18T02:21:35.712Z,59.70
2023-05-18T02:24:03.858Z,60.40
2023-05-18T02:26:32.159Z,59.80
2023-05-18T02:29:00.297Z,59.80
2023-05-18T02:31:31.115Z,59.90
2023-05-18T02:33:59.585Z,60.10
2023-05-18T02:36:27.676Z,60.00
2023-05-18T02:38:57.404Z,60.10
2023-05-18T02:41:25.925Z,60.10
2023-05-18T02:43:54.021Z,60.10
2023-05-18T02:46:22.305Z,61.00
2023-05-18T02:48:51.962Z,60.40
2023-05-18T02:51:20.124Z,60.50
2023-05-18T02:53:48.414Z,60.40
2023-05-18T02:56:17.804Z,60.50
2023-05-18T02:58:45.974Z,60.60
2023-05-18T03:01:14.107Z,60.70
2023-05-18T03:03:43.364Z,60.70
2023-05-18T03:06:14.089Z,60.90
2023-05-18T03:08:42.641Z,61.20
2023-05-18T03:11:10.879Z,61.30
2023-05-18T03:13:39.016Z,61.40
2023-05-18T03:16:07.372Z,61.60
2023-05-18T03:18:35.639Z,62.60
2023-05-18T03:21:03.948Z,61.90
2023-05-18T03:23:33.545Z,61.90
2023-05-18T03:26:04.214Z,62.20
2023-05-18T03:28:32.378Z,62.40
2023-05-18T03:31:00.631Z,62.40
2023-05-18T03:33:28.953Z,62.40
2023-05-18T03:35:57.252Z,62.60
2023-05-18T03:38:25.419Z,62.70
2023-05-18T03:40:55.272Z,62.80
2023-05-18T03:43:25.744Z,62.90
2023-05-18T03:45:54.239Z,62.80
2023-05-18T03:48:22.878Z,62.80
2023-05-18T03:50:51.270Z,62.90
2023-05-18T03:53:21.601Z,63.00
2023-05-18T03:55:50.363Z,63.10
2023-05-18T03:58:20.784Z,63.10
2023-05-18T04:00:49.834Z,63.30
2023-05-18T04:03:18.177Z,63.20
2023-05-18T04:05:46.524Z,63.20
2023-05-18T04:08:14.976Z,63.10
2023-05-18T04:10:43.596Z,63.20
2023-05-18T04:13:12.266Z,63.20
2023-05-18T04:15:41.981Z,63.20
2023-05-18T04:18:10.437Z,63.30
2023-05-18T04:20:39.114Z,63.20
2023-05-18T04:23:09.728Z,63.10
2023-05-18T04:25:39.410Z,63.10
2023-05-18T04:28:08.362Z,63.10
2023-05-18T04:30:37.877Z,63.10
2023-05-18T04:33:07.879Z,63.20
2023-05-18T04:35:36.246Z,63.30
2023-05-18T04:38:05.530Z,63.20
2023-05-18T04:40:34.504Z,63.30
2023-05-18T04:43:03.478Z,63.30
2023-05-18T04:45:32.024Z,63.30
2023-05-18T04:48:02.139Z,63.30
2023-05-18T04:50:31.794Z,63.30
2023-05-18T04:53:02.384Z,63.30
2023-05-18T04:55:31.300Z,63.20
2023-05-18T04:58:00.671Z,63.30
2023-05-18T05:00:30.300Z,63.30
2023-05-18T05:02:59.653Z,63.30
2023-05-18T05:05:28.212Z,63.30
2023-05-18T05:07:58.906Z,63.20
2023-05-18T05:10:28.181Z,63.30
2023-05-18T05:12:56.435Z,63.20
2023-05-18T05:15:24.663Z,63.30
2023-05-18T05:17:53.076Z,63.30
2023-05-18T05:20:21.566Z,63.30
2023-05-18T05:22:49.947Z,63.40
2023-05-18T05:25:19.785Z,63.30
2023-05-18T05:27:47.916Z,63.30
2023-05-18T05:30:16.344Z,63.50
2023-05-18T05:32:44.724Z,63.40
2023-05-18T05:35:13.024Z,63.00
2023-05-18T05:37:41.375Z,62.90
2023-05-18T05:40:10.706Z,62.70
2023-05-18T05:42:41.710Z,62.60
2023-05-18T05:45:10.488Z,62.60
2023-05-18T05:47:38.645Z,62.60
2023-05-18T05:50:07.602Z,62.40
2023-05-18T05:52:35.733Z,62.40
2023-05-18T05:55:04.158Z,62.50
2023-05-18T05:57:32.311Z,62.70
2023-05-18T06:00:02.492Z,62.80
2023-05-18T06:02:31.173Z,63.00
2023-05-18T06:04:59.494Z,62.80
2023-05-18T06:07:27.725Z,63.00
2023-05-18T06:09:55.893Z,63.80
2023-05-18T06:12:24.177Z,63.20
2023-05-18T06:14:54.346Z,63.30
2023-05-18T06:17:23.889Z,63.00
2023-05-18T06:19:52.024Z,63.10
2023-05-18T06:22:20.257Z,63.00
2023-05-18T06:24:48.446Z,62.70
2023-05-18T06:27:16.918Z,62.30
2023-05-18T06:29:45.174Z,62.50
2023-05-18T06:32:13.981Z,62.30
2023-05-18T06:34:45.931Z,62.40
2023-05-18T06:37:14.226Z,62.30
2023-05-18T06:39:42.354Z,62.10
2023-05-18T06:42:11.400Z,61.80
2023-05-18T06:44:39.512Z,61.80
2023-05-18T06:47:08.492Z,61.80
2023-05-18T06:49:36.632Z,61.70
2023-05-18T06:52:07.078Z,61.40
2023-05-18T06:54:35.229Z,61.30
2023-05-18T06:57:03.401Z,61.30
2023-05-18T06:59:31.759Z,61.00
2023-05-18T07:01:59.969Z,60.80
2023-05-18T07:04:28.577Z,60.70
2023-05-18T07:06:56.934Z,60.80
2023-05-18T07:09:27.883Z,60.80
2023-05-18T07:11:55.992Z,60.80
2023-05-18T07:14:24.099Z,60.40
2023-05-18T07:16:52.437Z,60.30
2023-05-18T07:19:21.276Z,60.30
2023-05-18T07:21:49.774Z,60.40
2023-05-18T07:24:17.981Z,59.90
2023-05-18T07:26:47.549Z,59.60
2023-05-18T07:29:15.686Z,59.60
2023-05-18T07:31:44.063Z,59.40
2023-05-18T07:34:12.192Z,59.30
2023-05-18T07:36:40.439Z,59.00
2023-05-18T07:39:09.720Z,59.50
2023-05-18T07:41:37.825Z,58.80
2023-05-18T07:44:07.430Z,58.80
2023-05-18T07:46:35.770Z,58.70
2023-05-18T07:49:04.004Z,58.50
2023-05-18T07:51:32.375Z,58.60
2023-05-18T07:54:00.644Z,58.50
2023-05-18T07:56:28.961Z,58.40
2023-05-18T07:58:57.185Z,58.10
2023-05-18T08:01:30.119Z,57.70
2023-05-18T08:03:58.397Z,57.70
2023-05-18T08:06:26.700Z,57.70
2023-05-18T08:08:56.824Z,57.50
2023-05-18T08:11:25.071Z,57.30
2023-05-18T08:13:53.218Z,57.10
2023-05-18T08:16:21.535Z,56.60
2023-05-18T08:18:51.194Z,56.30
2023-05-18T08:21:19.435Z,55.80
2023-05-18T08:23:48.436Z,55.80
2023-05-18T08:26:16.558Z,55.60
2023-05-18T08:28:45.460Z,55.50
2023-05-18T08:31:13.642Z,55.30
2023-05-18T08:33:42.172Z,54.50
2023-05-18T08:36:11.900Z,54.60
2023-05-18T08:38:40.034Z,54.20
2023-05-18T08:41:16.346Z,53.80
2023-05-18T08:43:47.709Z,52.80
2023-05-18T08:46:22.293Z,53.00
2023-05-18T08:48:54.205Z,52.30
2023-05-18T08:51:23.968Z,52.60
2023-05-18T08:53:54.798Z,52.00
2023-05-18T08:56:25.164Z,51.10
2023-05-18T08:58:56.907Z,51.40
2023-05-18T09:01:29.281Z,51.10
2023-05-18T09:03:58.570Z,50.80
2023-05-18T09:06:28.968Z,51.70
2023-05-18T09:09:10.826Z,50.90
2023-05-18T09:11:40.484Z,49.90
2023-05-18T09:14:08.778Z,50.40
2023-05-18T09:16:36.954Z,50.20
2023-05-18T09:19:05.222Z,50.00
2023-05-18T09:21:35.135Z,50.00
2023-05-18T09:24:03.352Z,49.70
2023-05-18T09:26:31.980Z,49.00
2023-05-18T09:29:00.593Z,48.10
2023-05-18T09:31:31.542Z,47.30
2023-05-18T09:34:01.264Z,46.80
2023-05-18T09:36:30.525Z,46.10
2023-05-18T09:39:00.010Z,44.70
2023-05-18T09:41:29.342Z,44.90
2023-05-18T09:43:57.466Z,45.30
2023-05-18T09:46:25.645Z,44.40
2023-05-18T09:48:55.346Z,44.80
2023-05-18T09:51:25.799Z,44.10
2023-05-18T09:53:56.509Z,43.80
2023-05-18T09:56:27.232Z,42.80
2023-05-18T09:58:55.739Z,42.50
2023-05-18T10:01:24.377Z,43.50
2023-05-18T10:03:53.440Z,43.30
2023-05-18T10:06:27.695Z,43.20
2023-05-18T10:08:58.616Z,43.30
2023-05-18T10:11:32.920Z,42.70
2023-05-18T10:14:01.428Z,42.70
2023-05-18T10:16:30.164Z,42.30
2023-05-18T10:18:58.578Z,42.10
2023-05-18T10:21:31.881Z,40.20
2023-05-18T10:24:04.171Z,40.20
2023-05-18T10:26:38.281Z,40.90
2023-05-18T10:29:07.979Z,40.40
2023-05-18T10:31:38.481Z,39.80
2023-05-18T10:34:07.278Z,39.20
2023-05-18T10:36:38.026Z,40.00
2023-05-18T10:39:07.301Z,39.40
2023-05-18T10:41:39.224Z,39.40
2023-05-18T10:44:08.538Z,39.00
2023-05-18T10:46:38.514Z,38.90
2023-05-18T10:49:13.224Z,38.90
2023-05-18T10:51:44.240Z,39.80
2023-05-18T10:54:14.417Z,40.00
2023-05-18T10:56:47.810Z,39.50
2023-05-18T10:59:18.435Z,39.40
2023-05-18T11:01:48.741Z,39.40
2023-05-18T11:04:17.394Z,39.80
2023-05-18T11:06:56.813Z,39.80
2023-05-18T11:09:26.402Z,38.00
2023-05-18T11:11:59.054Z,39.00
2023-05-18T11:14:28.401Z,39.30
2023-05-18T11:17:17.254Z,38.00
2023-05-18T11:20:13.118Z,37.70
2023-05-18T11:22:47.554Z,37.00
2023-05-18T11:25:38.066Z,37.90
2023-05-18T11:28:10.237Z,38.00
2023-05-18T11:30:49.976Z,37.20
2023-05-18T11:33:24.348Z,36.70
2023-05-18T11:35:57.238Z,35.90
2023-05-18T11:38:30.630Z,36.20
2023-05-18T11:41:00.869Z,36.70
2023-05-18T11:43:31.480Z,37.20
2023-05-18T11:46:00.661Z,37.90
2023-05-18T11:48:30.516Z,38.00
2023-05-18T11:50:58.917Z,38.40
2023-05-18T11:53:28.267Z,36.90
2023-05-18T11:55:57.171Z,36.00
2023-05-18T11:58:26.251Z,36.60
2023-05-18T12:00:58.042Z,36.00
2023-05-18T12:03:27.511Z,37.10
2023-05-18T12:06:01.471Z,37.60
2023-05-18T12:08:30.298Z,36.70
2023-05-18T12:10:58.538Z,35.20
2023-05-18T12:13:27.699Z,36.10
2023-05-18T12:15:59.200Z,36.30
2023-05-18T12:18:30.085Z,35.60
2023-05-18T12:20:58.202Z,35.80
2023-05-18T12:23:38.144Z,36.80
2023-05-18T12:26:06.527Z,36.00
2023-05-18T12:28:34.693Z,36.10
2023-05-18T12:31:08.422Z,35.50
2023-05-18T12:33:36.641Z,36.30
2023-05-18T12:36:05.111Z,36.70
2023-05-18T12:38:33.234Z,35.50
2023-05-18T12:41:01.388Z,35.00
2023-05-18T12:43:34.897Z,35.50
2023-05-18T12:46:05.152Z,35.10
2023-05-18T12:48:37.281Z,35.00
2023-05-18T12:51:06.102Z,34.40
2023-05-18T12:53:43.097Z,34.40
2023-05-18T12:56:11.683Z,34.90
2023-05-18T12:58:40.991Z,34.20
2023-05-18T13:01:11.399Z,34.70
2023-05-18T13:03:41.910Z,34.60
2023-05-18T13:06:10.850Z,35.20
2023-05-18T13:08:39.161Z,34.40
2023-05-18T13:13:40.142Z,33.70
2023-05-18T13:16:17.335Z,34.50
2023-05-18T13:18:47.813Z,33.60
2023-05-18T13:21:16.186Z,34.40
2023-05-18T13:23:44.434Z,34.30
2023-05-18T13:26:12.930Z,34.90
2023-05-18T13:28:41.305Z,34.70
2023-05-18T13:31:11.662Z,34.80
2023-05-18T13:33:42.506Z,34.80
2023-05-18T13:36:10.929Z,34.60
2023-05-18T13:38:39.291Z,34.60
2023-05-18T13:41:07.624Z,35.20
2023-05-18T13:43:35.777Z,34.50
2023-05-18T13:46:04.089Z,33.80
2023-05-18T13:48:32.287Z,32.80
2023-05-18T13:51:02.115Z,33.40
2023-05-18T13:53:30.300Z,33.40
2023-05-18T13:55:58.424Z,33.40
2023-05-18T13:58:26.624Z,34.00
2023-05-18T14:00:55.490Z,34.70
2023-05-18T14:03:24.519Z,35.30
2023-05-18T14:05:52.857Z,35.00
2023-05-18T14:08:22.389Z,34.20
2023-05-18T14:10:50.514Z,34.50
2023-05-18T14:13:18.675Z,33.80
2023-05-18T14:15:46.984Z,34.00
2023-05-18T14:18:16.544Z,34.50
2023-05-18T14:20:45.181Z,34.90
2023-05-18T14:23:13.291Z,34.60
2023-05-18T14:25:45.878Z,33.70
2023-05-18T14:28:14.386Z,34.40
2023-05-18T14:30:42.557Z,34.40
2023-05-18T14:33:10.757Z,34.80
2023-05-18T14:35:40.141Z,35.20
2023-05-18T14:38:08.472Z,35.20
2023-05-18T14:40:36.633Z,35.40
2023-05-18T14:43:06.288Z,35.20
2023-05-18T14:45:34.434Z,34.50
2023-05-18T14:48:02.640Z,34.50
2023-05-18T14:50:30.961Z,34.60
2023-05-18T14:52:59.259Z,34.70
2023-05-18T14:55:27.606Z,35.50
2023-05-18T14:57:55.901Z,35.40
2023-05-18T15:00:25.793Z,34.80
2023-05-18T15:02:53.938Z,34.60
2023-05-18T15:05:22.057Z,34.50
2023-05-18T15:07:50.171Z,34.40
2023-05-18T15:10:18.327Z,34.90
2023-05-18T15:12:46.472Z,34.90
2023-05-18T15:15:14.677Z,34.70
2023-05-18T15:17:44.323Z,34.70
2023-05-18T15:20:13.361Z,34.80
2023-05-18T15:22:41.762Z,35.10
2023-05-18T15:25:10.437Z,35.10
2023-05-18T15:27:39.116Z,35.50
2023-05-18T15:30:11.833Z,35.40
2023-05-18T15:32:40.151Z,35.90
2023-05-18T15:35:10.822Z,35.60
2023-05-18T15:37:38.977Z,35.90
2023-05-18T15:40:08.283Z,36.30
2023-05-18T15:42:36.753Z,36.20
2023-05-18T15:45:05.179Z,36.50
2023-05-18T15:47:33.507Z,36.50
2023-05-18T15:50:01.727Z,36.80
2023-05-18T15:52:31.257Z,36.90
2023-05-18T15:54:59.766Z,37.50
2023-05-18T15:57:27.939Z,37.70
2023-05-18T15:59:56.238Z,37.50
2023-05-18T16:02:25.924Z,37.60
2023-05-18T16:04:54.226Z,37.70
2023-05-18T16:07:22.383Z,37.70
2023-05-18T16:09:51.852Z,37.60
2023-05-18T16:12:19.987Z,37.80
2023-05-18T16:14:48.235Z,38.00
2023-05-18T16:17:16.439Z,38.10
2023-05-18T16:19:44.650Z,38.40
2023-05-18T16:22:12.765Z,38.50
2023-05-18T16:24:41.352Z,38.30
2023-05-18T16:27:10.946Z,38.60
2023-05-18T16:29:39.518Z,38.50
2023-05-18T16:32:08.242Z,38.10
2023-05-18T16:34:36.433Z,38.10
2023-05-18T16:37:04.712Z,37.80
2023-05-18T16:39:32.874Z,37.90
2023-05-18T16:42:01.213Z,38.00
2023-05-18T16:44:30.851Z,38.10
2023-05-18T16:46:59.097Z,38.30
2023-05-18T16:49:27.270Z,38.00
2023-05-18T16:51:55.407Z,37.90
2023-05-18T16:54:23.510Z,38.30
2023-05-18T16:56:51.971Z,38.40
2023-05-18T16:59:20.385Z,38.60
2023-05-18T17:01:49.969Z,38.80
2023-05-18T17:04:18.221Z,38.90
2023-05-18T17:06:46.636Z,39.10
2023-05-18T17:09:16.409Z,39.10
2023-05-18T17:11:44.562Z,39.20
2023-05-18T17:14:12.671Z,39.30
2023-05-18T17:16:41.178Z,39.50
2023-05-18T17:19:11.034Z,39.70
2023-05-18T17:21:39.237Z,39.90
2023-05-18T17:24:08.106Z,40.00
2023-05-18T17:26:36.255Z,39.90
2023-05-18T17:29:04.396Z,39.60
2023-05-18T17:31:32.698Z,40.80
2023-05-18T17:34:00.784Z,40.30
2023-05-18T17:36:31.040Z,40.40
2023-05-18T17:38:59.166Z,40.30
2023-05-18T17:41:27.333Z,40.30
2023-05-18T17:43:55.417Z,40.70
2023-05-18T17:46:23.607Z,40.10
2023-05-18T17:48:51.724Z,40.20
2023-05-18T17:51:19.896Z,40.10
2023-05-18T17:53:49.552Z,40.30
2023-05-18T17:56:18.886Z,40.30
2023-05-18T17:58:47.067Z,40.30
2023-05-18T18:01:15.224Z,40.40
2023-05-18T18:03:44.518Z,40.70
2023-05-18T18:06:12.823Z,40.90
2023-05-18T18:08:41.483Z,41.00
2023-05-18T18:11:11.212Z,41.20
2023-05-18T18:13:39.284Z,41.40
2023-05-18T18:16:07.787Z,41.30
2023-05-18T18:18:37.154Z,41.40
2023-05-18T18:21:06.257Z,41.50
2023-05-18T18:23:34.494Z,41.90
2023-05-18T18:26:03.978Z,41.90
2023-05-18T18:28:34.451Z,42.20
2023-05-18T18:31:03.380Z,42.40
2023-05-18T18:33:32.709Z,42.30
2023-05-18T18:36:01.282Z,42.50
2023-05-18T18:38:29.657Z,42.50
2023-05-18T18:41:01.647Z,42.60
2023-05-18T18:43:30.170Z,42.80
2023-05-18T18:46:00.004Z,42.90
2023-05-18T18:48:28.537Z,43.10
2023-05-18T18:50:56.835Z,43.20
2023-05-18T18:53:25.751Z,43.90
2023-05-18T18:55:54.241Z,43.50
2023-05-18T18:58:24.231Z,43.50
2023-05-18T19:00:52.409Z,44.00
2023-05-18T19:03:22.680Z,43.90
2023-05-18T19:05:51.766Z,44.10
2023-05-18T19:08:20.054Z,44.20
2023-05-18T19:10:48.467Z,44.30
2023-05-18T19:13:16.599Z,44.60
2023-05-18T19:15:45.461Z,44.70
2023-05-18T19:18:14.908Z,44.90
2023-05-18T19:20:44.513Z,45.00
2023-05-18T19:23:12.874Z,44.80
2023-05-18T19:25:41.633Z,45.00
2023-05-18T19:28:09.764Z,45.00
2023-05-18T19:30:37.877Z,45.10
2023-05-18T19:33:06.117Z,45.10
2023-05-18T19:35:34.504Z,45.10
2023-05-18T19:38:04.183Z,45.40
2023-05-18T19:40:32.327Z,45.60
2023-05-18T19:43:01.578Z,45.70
2023-05-18T19:45:30.189Z,45.70
2023-05-18T19:47:58.595Z,45.80
2023-05-18T19:50:26.761Z,45.90
2023-05-18T19:52:55.073Z,46.10
2023-05-18T19:55:24.529Z,46.30
2023-05-18T19:57:52.662Z,46.40
2023-05-18T20:00:20.786Z,46.40
2023-05-18T20:02:49.192Z,46.40
2023-05-18T20:05:18.780Z,46.70
2023-05-18T20:07:47.306Z,46.70
2023-05-18T20:10:15.767Z,46.80
2023-05-18T20:12:45.544Z,46.80
2023-05-18T20:15:14.318Z,47.20
2023-05-18T20:17:42.906Z,47.30
2023-05-18T20:20:12.321Z,47.30
2023-05-18T20:22:40.967Z,47.50
2023-05-18T20:25:09.837Z,47.60
2023-05-18T20:27:38.163Z,47.60
2023-05-18T20:30:09.347Z,47.60
2023-05-18T20:32:37.517Z,47.90
2023-05-18T20:35:06.096Z,48.00
2023-05-18T20:37:35.250Z,48.00
2023-05-18T20:40:08.820Z,48.00
2023-05-18T20:42:40.255Z,48.10
2023-05-18T20:45:10.941Z,48.30
2023-05-18T20:47:41.842Z,48.60
2023-05-18T20:50:11.087Z,48.30
2023-05-18T20:52:39.431Z,48.70
2023-05-18T20:55:09.148Z,48.80
2023-05-18T20:57:39.585Z,48.80
2023-05-18T21:00:10.514Z,48.70
2023-05-18T21:02:39.318Z,48.90
2023-05-18T21:05:08.141Z,49.10
2023-05-18T21:07:40.247Z,49.10
2023-05-18T21:10:09.481Z,49.10
2023-05-18T21:12:37.671Z,49.00
2023-05-18T21:15:06.949Z,49.20
2023-05-18T21:17:36.543Z,49.40
2023-05-18T21:20:05.940Z,49.50
2023-05-18T21:22:34.100Z,49.40
2023-05-18T21:25:05.142Z,49.60
2023-05-18T21:27:33.870Z,49.60
2023-05-18T21:30:02.074Z,49.80
2023-05-18T21:32:30.498Z,49.90
2023-05-18T21:35:00.197Z,49.80
2023-05-18T21:37:28.399Z,50.00
2023-05-18T21:39:56.498Z,49.90
2023-05-18T21:42:24.708Z,49.90
2023-05-18T21:44:52.827Z,49.90
2023-05-18T21:47:21.025Z,49.90
2023-05-18T21:49:49.197Z,49.90
2023-05-18T21:52:18.763Z,50.00
2023-05-18T21:54:47.028Z,50.10
2023-05-18T21:57:15.179Z,50.10
2023-05-18T21:59:43.388Z,50.10
2023-05-18T22:02:11.601Z,50.30
2023-05-18T22:04:39.820Z,50.20
2023-05-18T22:07:08.034Z,50.10
2023-05-18T22:09:37.598Z,50.30
2023-05-18T22:12:06.811Z,50.40
2023-05-18T22:14:34.988Z,50.40
2023-05-18T22:17:03.231Z,50.40
2023-05-18T22:19:31.435Z,50.40
2023-05-18T22:22:01.484Z,50.40
2023-05-18T22:24:29.717Z,50.50
2023-05-18T22:26:59.224Z,50.50
2023-05-18T22:29:27.357Z,50.50
2023-05-18T22:31:55.597Z,50.60
2023-05-18T22:34:23.956Z,50.70
2023-05-18T22:36:52.046Z,50.70
2023-05-18T22:39:20.220Z,50.80
2023-05-18T22:41:48.410Z,50.90
2023-05-18T22:44:17.959Z,50.90
2023-05-18T22:46:46.245Z,51.10
2023-05-18T22:49:15.160Z,51.00
2023-05-18T22:51:43.470Z,51.00
2023-05-18T22:54:11.568Z,51.10
2023-05-18T22:56:40.442Z,51.10
2023-05-18T22:59:10.246Z,51.20
2023-05-18T23:01:39.946Z,51.30
2023-05-18T23:04:08.172Z,51.40
2023-05-18T23:06:36.412Z,51.40
2023-05-18T23:09:04.555Z,51.40
2023-05-18T23:11:34.985Z,51.50
2023-05-18T23:14:03.169Z,51.80
2023-05-18T23:16:31.758Z,51.70
2023-05-18T23:19:02.227Z,51.70
2023-05-18T23:21:31.368Z,51.90
2023-05-18T23:23:59.837Z,51.90
2023-05-18T23:26:28.071Z,51.90
2023-05-18T23:28:56.156Z,52.00
2023-05-18T23:31:24.304Z,52.20
2023-05-18T23:33:53.065Z,52.30
2023-05-18T23:36:22.975Z,52.50
2023-05-18T23:38:52.710Z,52.80
2023-05-18T23:41:21.989Z,52.90
2023-05-18T23:43:50.768Z,53.00
2023-05-18T23:46:19.581Z,53.10
2023-05-18T23:48:48.734Z,53.20
2023-05-18T23:51:18.939Z,53.40
2023-05-18T23:53:49.706Z,53.50
2023-05-18T23:56:18.652Z,53.70
2023-05-18T23:58:47.872Z,53.70
